sensor_id;sensor_type;location;lat;lon;timestamp;P1;durP1;ratioP1;P2;durP2;ratioP2
8213;SDS011;4148;47.974;7.824;2023-12-28T00:00:26;4.27;;;2.70;;
8213;SDS011;4148;47.974;7.824;2023-12-28T00:02:54;4.00;;;2.37;;
8213;SDS011;4148;47.974;7.824;2023-12-28T00:05:23;2.87;;;2.30;;
8213;SDS011;4148;47.974;7.824;2023-12-28T00:07:51;4.63;;;2.30;;
8213;SDS011;4148;47.974;7.824;2023-12-28T00:10:25;2.73;;;2.10;;
8213;SDS011;4148;47.974;7.824;2023-12-28T00:12:53;3.27;;;1.97;;
8213;SDS011;4148;47.974;7.824;2023-12-28T00:15:22;2.43;;;2.03;;
8213;SDS011;4148;47.974;7.824;2023-12-28T00:17:50;4.23;;;2.00;;
8213;SDS011;4148;47.974;7.824;2023-12-28T00:20:18;3.20;;;2.10;;
8213;SDS011;4148;47.974;7.824;2023-12-28T00:22:47;2.90;;;1.83;;
8213;SDS011;4148;47.974;7.824;2023-12-28T00:25:15;2.97;;;1.90;;
8213;SDS011;4148;47.974;7.824;2023-12-28T00:27:43;3.50;;;2.00;;
8213;SDS011;4148;47.974;7.824;2023-12-28T00:30:12;5.10;;;2.37;;
8213;SDS011;4148;47.974;7.824;2023-12-28T00:32:40;3.13;;;2.00;;
8213;SDS011;4148;47.974;7.824;2023-12-28T00:35:09;4.03;;;2.20;;
8213;SDS011;4148;47.974;7.824;2023-12-28T00:37:38;4.17;;;2.40;;
8213;SDS011;4148;47.974;7.824;2023-12-28T00:40:08;2.67;;;1.97;;
8213;SDS011;4148;47.974;7.824;2023-12-28T00:42:37;2.67;;;1.80;;
8213;SDS011;4148;47.974;7.824;2023-12-28T00:45:07;2.70;;;2.20;;
8213;SDS011;4148;47.974;7.824;2023-12-28T00:47:35;4.53;;;2.03;;
8213;SDS011;4148;47.974;7.824;2023-12-28T00:50:04;2.83;;;1.73;;
8213;SDS011;4148;47.974;7.824;2023-12-28T00:52:32;2.90;;;1.80;;
8213;SDS011;4148;47.974;7.824;2023-12-28T00:55:00;2.03;;;1.40;;
8213;SDS011;4148;47.974;7.824;2023-12-28T00:57:29;3.40;;;2.10;;
8213;SDS011;4148;47.974;7.824;2023-12-28T00:59:57;5.90;;;2.10;;
8213;SDS011;4148;47.974;7.824;2023-12-28T01:02:25;2.33;;;2.10;;
8213;SDS011;4148;47.974;7.824;2023-12-28T01:04:53;2.80;;;2.13;;
8213;SDS011;4148;47.974;7.824;2023-12-28T01:07:21;2.40;;;1.80;;
8213;SDS011;4148;47.974;7.824;2023-12-28T01:09:49;3.00;;;2.20;;
8213;SDS011;4148;47.974;7.824;2023-12-28T01:12:17;3.30;;;2.10;;
8213;SDS011;4148;47.974;7.824;2023-12-28T01:14:46;2.40;;;1.80;;
8213;SDS011;4148;47.974;7.824;2023-12-28T01:17:14;2.80;;;2.00;;
8213;SDS011;4148;47.974;7.824;2023-12-28T01:19:42;2.60;;;2.10;;
8213;SDS011;4148;47.974;7.824;2023-12-28T01:22:10;2.97;;;2.03;;
8213;SDS011;4148;47.974;7.824;2023-12-28T01:24:38;4.30;;;2.20;;
8213;SDS011;4148;47.974;7.824;2023-12-28T01:27:05;2.23;;;1.80;;
8213;SDS011;4148;47.974;7.824;2023-12-28T01:29:33;2.80;;;1.87;;
8213;SDS011;4148;47.974;7.824;2023-12-28T01:32:03;2.37;;;1.83;;
8213;SDS011;4148;47.974;7.824;2023-12-28T01:34:32;2.00;;;1.50;;
8213;SDS011;4148;47.974;7.824;2023-12-28T01:37:00;2.67;;;1.87;;
8213;SDS011;4148;47.974;7.824;2023-12-28T01:39:28;3.13;;;2.03;;
8213;SDS011;4148;47.974;7.824;2023-12-28T01:41:56;3.93;;;2.47;;
8213;SDS011;4148;47.974;7.824;2023-12-28T01:44:23;4.20;;;2.20;;
8213;SDS011;4148;47.974;7.824;2023-12-28T01:46:51;2.80;;;2.03;;
8213;SDS011;4148;47.974;7.824;2023-12-28T01:49:21;2.70;;;1.70;;
8213;SDS011;4148;47.974;7.824;2023-12-28T01:51:50;3.10;;;2.00;;
8213;SDS011;4148;47.974;7.824;2023-12-28T01:54:19;2.67;;;1.90;;
8213;SDS011;4148;47.974;7.824;2023-12-28T01:56:47;2.40;;;1.73;;
8213;SDS011;4148;47.974;7.824;2023-12-28T01:59:15;3.10;;;2.10;;
8213;SDS011;4148;47.974;7.824;2023-12-28T02:01:44;3.50;;;2.23;;
8213;SDS011;4148;47.974;7.824;2023-12-28T02:04:12;2.77;;;2.00;;
8213;SDS011;4148;47.974;7.824;2023-12-28T02:06:42;3.00;;;1.90;;
8213;SDS011;4148;47.974;7.824;2023-12-28T02:09:10;3.03;;;1.97;;
8213;SDS011;4148;47.974;7.824;2023-12-28T02:11:38;2.87;;;2.00;;
8213;SDS011;4148;47.974;7.824;2023-12-28T02:14:06;2.50;;;1.70;;
8213;SDS011;4148;47.974;7.824;2023-12-28T02:16:36;2.73;;;1.73;;
8213;SDS011;4148;47.974;7.824;2023-12-28T02:19:14;3.43;;;2.17;;
8213;SDS011;4148;47.974;7.824;2023-12-28T02:21:52;2.83;;;1.97;;
8213;SDS011;4148;47.974;7.824;2023-12-28T02:24:21;2.87;;;1.63;;
8213;SDS011;4148;47.974;7.824;2023-12-28T02:26:51;2.90;;;2.00;;
8213;SDS011;4148;47.974;7.824;2023-12-28T02:29:18;2.47;;;2.13;;
8213;SDS011;4148;47.974;7.824;2023-12-28T02:31:49;3.00;;;2.00;;
8213;SDS011;4148;47.974;7.824;2023-12-28T02:34:28;3.33;;;2.10;;
8213;SDS011;4148;47.974;7.824;2023-12-28T02:36:59;3.40;;;2.10;;
8213;SDS011;4148;47.974;7.824;2023-12-28T02:39:28;2.43;;;1.70;;
8213;SDS011;4148;47.974;7.824;2023-12-28T02:41:59;3.77;;;2.53;;
8213;SDS011;4148;47.974;7.824;2023-12-28T02:44:27;2.57;;;2.00;;
8213;SDS011;4148;47.974;7.824;2023-12-28T02:46:55;2.97;;;2.30;;
8213;SDS011;4148;47.974;7.824;2023-12-28T02:49:22;3.23;;;2.20;;
8213;SDS011;4148;47.974;7.824;2023-12-28T02:51:50;2.37;;;1.97;;
8213;SDS011;4148;47.974;7.824;2023-12-28T02:54:18;4.47;;;2.07;;
8213;SDS011;4148;47.974;7.824;2023-12-28T02:56:46;3.03;;;2.30;;
8213;SDS011;4148;47.974;7.824;2023-12-28T02:59:16;2.83;;;1.80;;
8213;SDS011;4148;47.974;7.824;2023-12-28T03:01:43;3.30;;;2.00;;
8213;SDS011;4148;47.974;7.824;2023-12-28T03:04:11;2.00;;;1.80;;
8213;SDS011;4148;47.974;7.824;2023-12-28T03:06:39;3.80;;;2.33;;
8213;SDS011;4148;47.974;7.824;2023-12-28T03:09:08;4.80;;;2.30;;
8213;SDS011;4148;47.974;7.824;2023-12-28T03:11:35;3.40;;;2.20;;
8213;SDS011;4148;47.974;7.824;2023-12-28T03:14:03;2.90;;;1.90;;
8213;SDS011;4148;47.974;7.824;2023-12-28T03:16:32;3.43;;;2.20;;
8213;SDS011;4148;47.974;7.824;2023-12-28T03:19:00;4.30;;;2.10;;
8213;SDS011;4148;47.974;7.824;2023-12-28T03:21:28;6.50;;;2.40;;
8213;SDS011;4148;47.974;7.824;2023-12-28T03:23:56;3.33;;;1.97;;
8213;SDS011;4148;47.974;7.824;2023-12-28T03:26:24;2.60;;;1.97;;
8213;SDS011;4148;47.974;7.824;2023-12-28T03:28:52;2.17;;;1.70;;
8213;SDS011;4148;47.974;7.824;2023-12-28T03:31:20;3.33;;;2.23;;
8213;SDS011;4148;47.974;7.824;2023-12-28T03:33:49;3.00;;;1.97;;
8213;SDS011;4148;47.974;7.824;2023-12-28T03:36:17;2.30;;;1.83;;
8213;SDS011;4148;47.974;7.824;2023-12-28T03:38:46;3.53;;;2.40;;
8213;SDS011;4148;47.974;7.824;2023-12-28T03:41:16;3.13;;;1.77;;
8213;SDS011;4148;47.974;7.824;2023-12-28T03:43:45;3.17;;;2.10;;
8213;SDS011;4148;47.974;7.824;2023-12-28T03:46:13;2.60;;;2.00;;
8213;SDS011;4148;47.974;7.824;2023-12-28T03:48:41;2.80;;;2.00;;
8213;SDS011;4148;47.974;7.824;2023-12-28T03:51:14;2.87;;;1.60;;
8213;SDS011;4148;47.974;7.824;2023-12-28T03:53:42;2.90;;;1.97;;
8213;SDS011;4148;47.974;7.824;2023-12-28T03:56:17;2.57;;;1.70;;
8213;SDS011;4148;47.974;7.824;2023-12-28T03:58:46;3.73;;;2.07;;
8213;SDS011;4148;47.974;7.824;2023-12-28T04:01:14;2.90;;;1.70;;
8213;SDS011;4148;47.974;7.824;2023-12-28T04:03:43;2.80;;;1.70;;
8213;SDS011;4148;47.974;7.824;2023-12-28T04:06:11;2.30;;;1.53;;
8213;SDS011;4148;47.974;7.824;2023-12-28T04:08:41;2.87;;;1.80;;
8213;SDS011;4148;47.974;7.824;2023-12-28T04:11:09;2.27;;;1.70;;
8213;SDS011;4148;47.974;7.824;2023-12-28T04:13:37;4.53;;;2.10;;
8213;SDS011;4148;47.974;7.824;2023-12-28T04:16:05;2.60;;;1.70;;
8213;SDS011;4148;47.974;7.824;2023-12-28T04:18:35;3.50;;;1.80;;
8213;SDS011;4148;47.974;7.824;2023-12-28T04:21:03;1.93;;;1.60;;
8213;SDS011;4148;47.974;7.824;2023-12-28T04:23:34;2.53;;;1.90;;
8213;SDS011;4148;47.974;7.824;2023-12-28T04:26:04;1.80;;;1.30;;
8213;SDS011;4148;47.974;7.824;2023-12-28T04:28:33;2.33;;;1.83;;
8213;SDS011;4148;47.974;7.824;2023-12-28T04:31:02;2.47;;;1.70;;
8213;SDS011;4148;47.974;7.824;2023-12-28T04:33:31;2.57;;;1.80;;
8213;SDS011;4148;47.974;7.824;2023-12-28T04:36:00;2.60;;;1.73;;
8213;SDS011;4148;47.974;7.824;2023-12-28T04:38:31;2.00;;;1.60;;
8213;SDS011;4148;47.974;7.824;2023-12-28T04:40:59;3.00;;;1.90;;
8213;SDS011;4148;47.974;7.824;2023-12-28T04:43:29;3.13;;;1.70;;
8213;SDS011;4148;47.974;7.824;2023-12-28T04:45:57;3.77;;;1.57;;
8213;SDS011;4148;47.974;7.824;2023-12-28T04:48:29;2.40;;;1.80;;
8213;SDS011;4148;47.974;7.824;2023-12-28T04:50:57;2.20;;;1.40;;
8213;SDS011;4148;47.974;7.824;2023-12-28T04:53:26;3.23;;;1.87;;
8213;SDS011;4148;47.974;7.824;2023-12-28T04:55:55;2.03;;;1.43;;
8213;SDS011;4148;47.974;7.824;2023-12-28T04:58:23;2.20;;;2.00;;
8213;SDS011;4148;47.974;7.824;2023-12-28T05:00:52;2.40;;;1.60;;
8213;SDS011;4148;47.974;7.824;2023-12-28T05:03:20;2.63;;;1.47;;
8213;SDS011;4148;47.974;7.824;2023-12-28T05:05:48;2.47;;;1.80;;
8213;SDS011;4148;47.974;7.824;2023-12-28T05:08:16;2.70;;;1.60;;
8213;SDS011;4148;47.974;7.824;2023-12-28T05:10:44;3.07;;;1.73;;
8213;SDS011;4148;47.974;7.824;2023-12-28T05:13:12;3.57;;;1.60;;
8213;SDS011;4148;47.974;7.824;2023-12-28T05:15:39;2.70;;;1.90;;
8213;SDS011;4148;47.974;7.824;2023-12-28T05:18:09;2.20;;;1.50;;
8213;SDS011;4148;47.974;7.824;2023-12-28T05:20:37;2.03;;;1.47;;
8213;SDS011;4148;47.974;7.824;2023-12-28T05:23:05;3.00;;;1.73;;
8213;SDS011;4148;47.974;7.824;2023-12-28T05:25:33;2.33;;;1.83;;
8213;SDS011;4148;47.974;7.824;2023-12-28T05:28:01;2.40;;;1.77;;
8213;SDS011;4148;47.974;7.824;2023-12-28T05:30:30;2.30;;;1.70;;
8213;SDS011;4148;47.974;7.824;2023-12-28T05:32:58;2.60;;;1.73;;
8213;SDS011;4148;47.974;7.824;2023-12-28T05:35:27;2.13;;;1.70;;
8213;SDS011;4148;47.974;7.824;2023-12-28T05:37:55;2.10;;;1.50;;
8213;SDS011;4148;47.974;7.824;2023-12-28T05:40:23;2.63;;;1.87;;
8213;SDS011;4148;47.974;7.824;2023-12-28T05:42:51;2.57;;;2.10;;
8213;SDS011;4148;47.974;7.824;2023-12-28T05:45:19;2.90;;;1.77;;
8213;SDS011;4148;47.974;7.824;2023-12-28T05:47:47;2.93;;;2.10;;
8213;SDS011;4148;47.974;7.824;2023-12-28T05:50:15;3.00;;;2.50;;
8213;SDS011;4148;47.974;7.824;2023-12-28T05:52:44;2.80;;;1.80;;
8213;SDS011;4148;47.974;7.824;2023-12-28T05:55:12;2.50;;;2.00;;
8213;SDS011;4148;47.974;7.824;2023-12-28T05:57:40;3.90;;;2.13;;
8213;SDS011;4148;47.974;7.824;2023-12-28T06:00:08;4.10;;;2.60;;
8213;SDS011;4148;47.974;7.824;2023-12-28T06:02:37;3.80;;;2.10;;
8213;SDS011;4148;47.974;7.824;2023-12-28T06:05:05;4.00;;;2.13;;
8213;SDS011;4148;47.974;7.824;2023-12-28T06:07:33;2.50;;;1.77;;
8213;SDS011;4148;47.974;7.824;2023-12-28T06:10:03;3.37;;;1.80;;
8213;SDS011;4148;47.974;7.824;2023-12-28T06:12:31;3.13;;;2.07;;
8213;SDS011;4148;47.974;7.824;2023-12-28T06:14:59;2.90;;;1.87;;
8213;SDS011;4148;47.974;7.824;2023-12-28T06:17:27;3.00;;;2.30;;
8213;SDS011;4148;47.974;7.824;2023-12-28T06:19:59;3.63;;;2.40;;
8213;SDS011;4148;47.974;7.824;2023-12-28T06:22:28;2.70;;;1.90;;
8213;SDS011;4148;47.974;7.824;2023-12-28T06:24:56;2.60;;;2.10;;
8213;SDS011;4148;47.974;7.824;2023-12-28T06:27:25;3.50;;;2.33;;
8213;SDS011;4148;47.974;7.824;2023-12-28T06:29:53;3.10;;;2.50;;
8213;SDS011;4148;47.974;7.824;2023-12-28T06:32:21;3.60;;;2.40;;
8213;SDS011;4148;47.974;7.824;2023-12-28T06:34:50;4.23;;;2.13;;
8213;SDS011;4148;47.974;7.824;2023-12-28T06:37:18;4.23;;;2.27;;
8213;SDS011;4148;47.974;7.824;2023-12-28T06:39:46;2.30;;;2.10;;
8213;SDS011;4148;47.974;7.824;2023-12-28T06:42:14;3.80;;;2.60;;
8213;SDS011;4148;47.974;7.824;2023-12-28T06:44:43;3.07;;;1.77;;
8213;SDS011;4148;47.974;7.824;2023-12-28T06:47:11;3.10;;;1.80;;
8213;SDS011;4148;47.974;7.824;2023-12-28T06:49:39;2.63;;;1.90;;
8213;SDS011;4148;47.974;7.824;2023-12-28T06:52:07;3.27;;;2.33;;
8213;SDS011;4148;47.974;7.824;2023-12-28T06:54:35;3.30;;;1.63;;
8213;SDS011;4148;47.974;7.824;2023-12-28T06:57:03;2.80;;;1.60;;
8213;SDS011;4148;47.974;7.824;2023-12-28T06:59:31;3.30;;;2.20;;
8213;SDS011;4148;47.974;7.824;2023-12-28T07:02:00;6.30;;;3.70;;
8213;SDS011;4148;47.974;7.824;2023-12-28T07:04:28;3.40;;;2.40;;
8213;SDS011;4148;47.974;7.824;2023-12-28T07:06:56;10.33;;;3.60;;
8213;SDS011;4148;47.974;7.824;2023-12-28T07:09:24;3.70;;;2.50;;
8213;SDS011;4148;47.974;7.824;2023-12-28T07:11:52;5.60;;;2.30;;
8213;SDS011;4148;47.974;7.824;2023-12-28T07:14:20;2.83;;;2.13;;
8213;SDS011;4148;47.974;7.824;2023-12-28T07:16:48;3.40;;;2.10;;
8213;SDS011;4148;47.974;7.824;2023-12-28T07:19:17;6.50;;;3.13;;
8213;SDS011;4148;47.974;7.824;2023-12-28T07:21:45;4.03;;;2.40;;
8213;SDS011;4148;47.974;7.824;2023-12-28T07:24:13;2.70;;;2.03;;
8213;SDS011;4148;47.974;7.824;2023-12-28T07:26:40;2.50;;;1.80;;
8213;SDS011;4148;47.974;7.824;2023-12-28T07:29:08;3.10;;;1.90;;
8213;SDS011;4148;47.974;7.824;2023-12-28T07:31:36;2.37;;;1.63;;
8213;SDS011;4148;47.974;7.824;2023-12-28T07:34:04;2.67;;;1.80;;
8213;SDS011;4148;47.974;7.824;2023-12-28T07:36:34;2.27;;;1.60;;
8213;SDS011;4148;47.974;7.824;2023-12-28T07:39:02;2.33;;;1.97;;
8213;SDS011;4148;47.974;7.824;2023-12-28T07:41:30;1.93;;;1.57;;
8213;SDS011;4148;47.974;7.824;2023-12-28T07:43:58;4.60;;;2.33;;
8213;SDS011;4148;47.974;7.824;2023-12-28T07:46:26;2.10;;;1.50;;
8213;SDS011;4148;47.974;7.824;2023-12-28T07:48:53;3.90;;;1.90;;
8213;SDS011;4148;47.974;7.824;2023-12-28T07:51:21;2.90;;;2.03;;
8213;SDS011;4148;47.974;7.824;2023-12-28T07:53:51;5.03;;;2.00;;
8213;SDS011;4148;47.974;7.824;2023-12-28T07:56:19;3.60;;;2.13;;
8213;SDS011;4148;47.974;7.824;2023-12-28T07:58:46;3.23;;;2.03;;
8213;SDS011;4148;47.974;7.824;2023-12-28T08:01:14;4.97;;;2.13;;
8213;SDS011;4148;47.974;7.824;2023-12-28T08:03:42;2.70;;;1.70;;
8213;SDS011;4148;47.974;7.824;2023-12-28T08:06:10;2.53;;;1.83;;
8213;SDS011;4148;47.974;7.824;2023-12-28T08:08:39;3.70;;;2.00;;
8213;SDS011;4148;47.974;7.824;2023-12-28T08:11:08;3.27;;;1.77;;
8213;SDS011;4148;47.974;7.824;2023-12-28T08:13:36;3.83;;;2.43;;
8213;SDS011;4148;47.974;7.824;2023-12-28T08:16:04;3.80;;;2.13;;
8213;SDS011;4148;47.974;7.824;2023-12-28T08:18:33;2.50;;;1.43;;
8213;SDS011;4148;47.974;7.824;2023-12-28T08:21:01;3.17;;;1.80;;
8213;SDS011;4148;47.974;7.824;2023-12-28T08:23:29;3.83;;;1.87;;
8213;SDS011;4148;47.974;7.824;2023-12-28T08:25:56;4.27;;;2.00;;
8213;SDS011;4148;47.974;7.824;2023-12-28T08:28:26;2.67;;;2.10;;
8213;SDS011;4148;47.974;7.824;2023-12-28T08:30:53;5.20;;;2.00;;
8213;SDS011;4148;47.974;7.824;2023-12-28T08:33:23;1.93;;;1.60;;
8213;SDS011;4148;47.974;7.824;2023-12-28T08:35:52;2.30;;;1.87;;
8213;SDS011;4148;47.974;7.824;2023-12-28T08:38:20;3.20;;;2.10;;
8213;SDS011;4148;47.974;7.824;2023-12-28T08:40:48;3.70;;;2.00;;
8213;SDS011;4148;47.974;7.824;2023-12-28T08:43:15;2.53;;;1.80;;
8213;SDS011;4148;47.974;7.824;2023-12-28T08:45:45;6.10;;;1.90;;
8213;SDS011;4148;47.974;7.824;2023-12-28T08:48:13;3.13;;;2.00;;
8213;SDS011;4148;47.974;7.824;2023-12-28T08:50:41;2.90;;;1.60;;
8213;SDS011;4148;47.974;7.824;2023-12-28T08:53:09;2.97;;;1.97;;
8213;SDS011;4148;47.974;7.824;2023-12-28T08:55:37;2.60;;;1.77;;
8213;SDS011;4148;47.974;7.824;2023-12-28T08:58:05;4.80;;;1.93;;
8213;SDS011;4148;47.974;7.824;2023-12-28T09:00:33;4.03;;;2.00;;
8213;SDS011;4148;47.974;7.824;2023-12-28T09:03:02;3.10;;;1.87;;
8213;SDS011;4148;47.974;7.824;2023-12-28T09:05:30;2.30;;;1.90;;
8213;SDS011;4148;47.974;7.824;2023-12-28T09:07:58;2.60;;;2.00;;
8213;SDS011;4148;47.974;7.824;2023-12-28T09:10:27;3.50;;;2.07;;
8213;SDS011;4148;47.974;7.824;2023-12-28T09:12:55;2.60;;;1.87;;
8213;SDS011;4148;47.974;7.824;2023-12-28T09:15:23;3.70;;;2.00;;
8213;SDS011;4148;47.974;7.824;2023-12-28T09:17:51;3.50;;;2.20;;
8213;SDS011;4148;47.974;7.824;2023-12-28T09:20:20;5.10;;;2.27;;
8213;SDS011;4148;47.974;7.824;2023-12-28T09:22:48;2.53;;;2.03;;
8213;SDS011;4148;47.974;7.824;2023-12-28T09:25:19;3.77;;;2.37;;
8213;SDS011;4148;47.974;7.824;2023-12-28T09:27:47;3.00;;;1.87;;
8213;SDS011;4148;47.974;7.824;2023-12-28T09:30:15;4.43;;;2.07;;
8213;SDS011;4148;47.974;7.824;2023-12-28T09:32:44;3.80;;;2.20;;
8213;SDS011;4148;47.974;7.824;2023-12-28T09:35:12;4.53;;;2.50;;
8213;SDS011;4148;47.974;7.824;2023-12-28T09:37:41;3.30;;;2.30;;
8213;SDS011;4148;47.974;7.824;2023-12-28T09:40:09;3.80;;;1.97;;
8213;SDS011;4148;47.974;7.824;2023-12-28T09:42:39;4.40;;;2.70;;
8213;SDS011;4148;47.974;7.824;2023-12-28T09:45:11;3.40;;;2.10;;
8213;SDS011;4148;47.974;7.824;2023-12-28T09:47:41;4.00;;;2.47;;
8213;SDS011;4148;47.974;7.824;2023-12-28T09:50:10;5.47;;;2.70;;
8213;SDS011;4148;47.974;7.824;2023-12-28T09:52:41;3.03;;;2.17;;
8213;SDS011;4148;47.974;7.824;2023-12-28T09:55:09;3.00;;;2.40;;
8213;SDS011;4148;47.974;7.824;2023-12-28T09:57:37;3.13;;;2.03;;
8213;SDS011;4148;47.974;7.824;2023-12-28T10:00:06;6.20;;;2.57;;
8213;SDS011;4148;47.974;7.824;2023-12-28T10:02:35;3.40;;;2.40;;
8213;SDS011;4148;47.974;7.824;2023-12-28T10:05:05;4.07;;;2.23;;
8213;SDS011;4148;47.974;7.824;2023-12-28T10:07:39;2.80;;;1.93;;
8213;SDS011;4148;47.974;7.824;2023-12-28T10:10:14;2.97;;;1.80;;
8213;SDS011;4148;47.974;7.824;2023-12-28T10:12:42;2.53;;;1.77;;
8213;SDS011;4148;47.974;7.824;2023-12-28T10:15:10;3.40;;;1.80;;
8213;SDS011;4148;47.974;7.824;2023-12-28T10:17:38;2.50;;;2.10;;
8213;SDS011;4148;47.974;7.824;2023-12-28T10:20:06;3.30;;;2.10;;
8213;SDS011;4148;47.974;7.824;2023-12-28T10:22:36;2.73;;;2.00;;
8213;SDS011;4148;47.974;7.824;2023-12-28T10:25:06;3.03;;;2.40;;
8213;SDS011;4148;47.974;7.824;2023-12-28T10:27:37;2.83;;;2.10;;
8213;SDS011;4148;47.974;7.824;2023-12-28T10:30:07;2.77;;;2.00;;
8213;SDS011;4148;47.974;7.824;2023-12-28T10:32:39;4.40;;;2.13;;
8213;SDS011;4148;47.974;7.824;2023-12-28T10:35:08;2.73;;;2.03;;
8213;SDS011;4148;47.974;7.824;2023-12-28T10:37:36;3.20;;;1.93;;
8213;SDS011;4148;47.974;7.824;2023-12-28T10:40:13;3.13;;;2.27;;
8213;SDS011;4148;47.974;7.824;2023-12-28T10:42:46;3.67;;;1.93;;
8213;SDS011;4148;47.974;7.824;2023-12-28T10:45:19;2.57;;;2.13;;
8213;SDS011;4148;47.974;7.824;2023-12-28T10:47:53;3.17;;;2.50;;
8213;SDS011;4148;47.974;7.824;2023-12-28T10:50:28;4.97;;;2.37;;
8213;SDS011;4148;47.974;7.824;2023-12-28T10:53:00;3.60;;;2.43;;
8213;SDS011;4148;47.974;7.824;2023-12-28T10:55:40;2.87;;;2.07;;
8213;SDS011;4148;47.974;7.824;2023-12-28T10:58:14;4.40;;;2.60;;
8213;SDS011;4148;47.974;7.824;2023-12-28T11:00:47;3.53;;;2.50;;
8213;SDS011;4148;47.974;7.824;2023-12-28T11:03:20;5.00;;;2.70;;
8213;SDS011;4148;47.974;7.824;2023-12-28T11:05:51;2.93;;;2.03;;
8213;SDS011;4148;47.974;7.824;2023-12-28T11:08:20;5.00;;;2.30;;
8213;SDS011;4148;47.974;7.824;2023-12-28T11:10:50;2.80;;;2.20;;
8213;SDS011;4148;47.974;7.824;2023-12-28T11:13:19;4.77;;;2.30;;
8213;SDS011;4148;47.974;7.824;2023-12-28T11:15:48;3.37;;;2.00;;
8213;SDS011;4148;47.974;7.824;2023-12-28T11:18:17;5.40;;;2.40;;
8213;SDS011;4148;47.974;7.824;2023-12-28T11:20:47;3.70;;;2.00;;
8213;SDS011;4148;47.974;7.824;2023-12-28T11:23:16;3.10;;;2.27;;
8213;SDS011;4148;47.974;7.824;2023-12-28T11:25:44;2.43;;;2.07;;
8213;SDS011;4148;47.974;7.824;2023-12-28T11:28:13;3.70;;;2.20;;
8213;SDS011;4148;47.974;7.824;2023-12-28T11:30:41;3.77;;;2.50;;
8213;SDS011;4148;47.974;7.824;2023-12-28T11:33:10;3.70;;;2.53;;
8213;SDS011;4148;47.974;7.824;2023-12-28T11:35:38;4.00;;;2.33;;
8213;SDS011;4148;47.974;7.824;2023-12-28T11:38:08;2.77;;;2.27;;
8213;SDS011;4148;47.974;7.824;2023-12-28T11:40:41;4.40;;;2.37;;
8213;SDS011;4148;47.974;7.824;2023-12-28T11:43:20;5.53;;;2.40;;
8213;SDS011;4148;47.974;7.824;2023-12-28T11:45:50;3.23;;;2.30;;
8213;SDS011;4148;47.974;7.824;2023-12-28T11:48:22;3.00;;;2.40;;
8213;SDS011;4148;47.974;7.824;2023-12-28T11:50:53;3.23;;;2.30;;
8213;SDS011;4148;47.974;7.824;2023-12-28T11:53:22;2.97;;;2.07;;
8213;SDS011;4148;47.974;7.824;2023-12-28T11:55:50;2.60;;;2.20;;
8213;SDS011;4148;47.974;7.824;2023-12-28T11:58:20;2.90;;;2.33;;
8213;SDS011;4148;47.974;7.824;2023-12-28T12:00:48;3.93;;;2.80;;
8213;SDS011;4148;47.974;7.824;2023-12-28T12:03:16;3.60;;;2.77;;
8213;SDS011;4148;47.974;7.824;2023-12-28T12:05:46;3.53;;;2.50;;
8213;SDS011;4148;47.974;7.824;2023-12-28T12:08:14;2.43;;;2.23;;
8213;SDS011;4148;47.974;7.824;2023-12-28T12:10:42;2.70;;;2.40;;
8213;SDS011;4148;47.974;7.824;2023-12-28T12:13:10;6.63;;;2.57;;
8213;SDS011;4148;47.974;7.824;2023-12-28T12:15:40;3.10;;;2.57;;
8213;SDS011;4148;47.974;7.824;2023-12-28T12:18:08;2.90;;;2.60;;
8213;SDS011;4148;47.974;7.824;2023-12-28T12:20:37;5.10;;;2.70;;
8213;SDS011;4148;47.974;7.824;2023-12-28T12:23:05;5.30;;;2.50;;
8213;SDS011;4148;47.974;7.824;2023-12-28T12:25:33;3.80;;;2.50;;
8213;SDS011;4148;47.974;7.824;2023-12-28T12:28:01;3.00;;;2.50;;
8213;SDS011;4148;47.974;7.824;2023-12-28T12:30:30;4.70;;;2.97;;
8213;SDS011;4148;47.974;7.824;2023-12-28T12:32:59;5.50;;;2.77;;
8213;SDS011;4148;47.974;7.824;2023-12-28T12:35:28;3.83;;;2.70;;
8213;SDS011;4148;47.974;7.824;2023-12-28T12:37:56;3.60;;;2.63;;
8213;SDS011;4148;47.974;7.824;2023-12-28T12:40:24;5.60;;;3.20;;
8213;SDS011;4148;47.974;7.824;2023-12-28T12:42:53;4.70;;;2.53;;
8213;SDS011;4148;47.974;7.824;2023-12-28T12:45:21;4.30;;;3.33;;
8213;SDS011;4148;47.974;7.824;2023-12-28T12:47:50;3.87;;;2.67;;
8213;SDS011;4148;47.974;7.824;2023-12-28T12:50:20;3.23;;;2.30;;
8213;SDS011;4148;47.974;7.824;2023-12-28T12:52:48;3.67;;;3.17;;
8213;SDS011;4148;47.974;7.824;2023-12-28T12:55:17;4.10;;;2.90;;
8213;SDS011;4148;47.974;7.824;2023-12-28T12:57:45;3.60;;;2.33;;
8213;SDS011;4148;47.974;7.824;2023-12-28T13:00:13;3.57;;;2.73;;
8213;SDS011;4148;47.974;7.824;2023-12-28T13:02:41;3.50;;;2.53;;
8213;SDS011;4148;47.974;7.824;2023-12-28T13:05:09;5.03;;;2.63;;
8213;SDS011;4148;47.974;7.824;2023-12-28T13:07:40;4.07;;;3.23;;
8213;SDS011;4148;47.974;7.824;2023-12-28T13:10:08;4.63;;;2.87;;
8213;SDS011;4148;47.974;7.824;2023-12-28T13:12:37;3.97;;;3.07;;
8213;SDS011;4148;47.974;7.824;2023-12-28T13:15:05;5.57;;;3.00;;
8213;SDS011;4148;47.974;7.824;2023-12-28T13:17:35;4.90;;;2.80;;
8213;SDS011;4148;47.974;7.824;2023-12-28T13:20:04;3.63;;;2.90;;
8213;SDS011;4148;47.974;7.824;2023-12-28T13:22:33;2.70;;;2.40;;
8213;SDS011;4148;47.974;7.824;2023-12-28T13:25:02;4.23;;;2.97;;
8213;SDS011;4148;47.974;7.824;2023-12-28T13:27:31;3.20;;;2.50;;
8213;SDS011;4148;47.974;7.824;2023-12-28T13:29:59;3.67;;;2.47;;
8213;SDS011;4148;47.974;7.824;2023-12-28T13:32:27;4.43;;;2.90;;
8213;SDS011;4148;47.974;7.824;2023-12-28T13:34:55;3.97;;;2.70;;
8213;SDS011;4148;47.974;7.824;2023-12-28T13:37:28;2.90;;;2.53;;
8213;SDS011;4148;47.974;7.824;2023-12-28T13:39:56;3.50;;;2.80;;
8213;SDS011;4148;47.974;7.824;2023-12-28T13:42:25;3.70;;;2.97;;
8213;SDS011;4148;47.974;7.824;2023-12-28T13:44:53;6.07;;;3.43;;
8213;SDS011;4148;47.974;7.824;2023-12-28T13:47:21;4.73;;;3.10;;
8213;SDS011;4148;47.974;7.824;2023-12-28T13:49:49;3.90;;;2.90;;
8213;SDS011;4148;47.974;7.824;2023-12-28T13:52:17;3.83;;;3.00;;
8213;SDS011;4148;47.974;7.824;2023-12-28T13:54:45;4.30;;;3.10;;
8213;SDS011;4148;47.974;7.824;2023-12-28T13:57:13;4.67;;;3.43;;
8213;SDS011;4148;47.974;7.824;2023-12-28T13:59:42;4.63;;;2.97;;
8213;SDS011;4148;47.974;7.824;2023-12-28T14:02:10;4.13;;;3.30;;
8213;SDS011;4148;47.974;7.824;2023-12-28T14:04:38;4.47;;;3.77;;
8213;SDS011;4148;47.974;7.824;2023-12-28T14:07:06;3.83;;;3.23;;
8213;SDS011;4148;47.974;7.824;2023-12-28T14:09:34;4.43;;;3.00;;
8213;SDS011;4148;47.974;7.824;2023-12-28T14:12:02;5.53;;;3.63;;
8213;SDS011;4148;47.974;7.824;2023-12-28T14:14:30;4.67;;;3.77;;
8213;SDS011;4148;47.974;7.824;2023-12-28T14:17:00;5.40;;;3.90;;
8213;SDS011;4148;47.974;7.824;2023-12-28T14:19:28;4.33;;;3.40;;
8213;SDS011;4148;47.974;7.824;2023-12-28T14:21:57;4.80;;;3.37;;
8213;SDS011;4148;47.974;7.824;2023-12-28T14:24:25;5.30;;;3.47;;
8213;SDS011;4148;47.974;7.824;2023-12-28T14:26:54;4.40;;;3.13;;
8213;SDS011;4148;47.974;7.824;2023-12-28T14:29:23;5.10;;;3.97;;
8213;SDS011;4148;47.974;7.824;2023-12-28T14:31:51;4.77;;;3.40;;
8213;SDS011;4148;47.974;7.824;2023-12-28T14:34:21;5.03;;;3.30;;
8213;SDS011;4148;47.974;7.824;2023-12-28T14:36:50;4.37;;;3.30;;
8213;SDS011;4148;47.974;7.824;2023-12-28T14:39:20;5.60;;;2.87;;
8213;SDS011;4148;47.974;7.824;2023-12-28T14:41:48;3.97;;;3.23;;
8213;SDS011;4148;47.974;7.824;2023-12-28T14:44:15;3.40;;;2.70;;
8213;SDS011;4148;47.974;7.824;2023-12-28T14:46:43;4.10;;;2.80;;
8213;SDS011;4148;47.974;7.824;2023-12-28T14:49:11;5.30;;;2.97;;
8213;SDS011;4148;47.974;7.824;2023-12-28T14:51:41;4.47;;;3.00;;
8213;SDS011;4148;47.974;7.824;2023-12-28T14:54:09;4.33;;;2.93;;
8213;SDS011;4148;47.974;7.824;2023-12-28T14:56:37;4.63;;;2.90;;
8213;SDS011;4148;47.974;7.824;2023-12-28T14:59:16;8.23;;;2.70;;
8213;SDS011;4148;47.974;7.824;2023-12-28T15:01:44;5.87;;;2.90;;
8213;SDS011;4148;47.974;7.824;2023-12-28T15:04:12;6.40;;;3.30;;
8213;SDS011;4148;47.974;7.824;2023-12-28T15:06:41;3.90;;;2.50;;
8213;SDS011;4148;47.974;7.824;2023-12-28T15:09:09;4.40;;;2.70;;
8213;SDS011;4148;47.974;7.824;2023-12-28T15:11:38;7.47;;;4.40;;
8213;SDS011;4148;47.974;7.824;2023-12-28T15:14:14;3.80;;;3.10;;
8213;SDS011;4148;47.974;7.824;2023-12-28T15:16:43;3.90;;;3.50;;
8213;SDS011;4148;47.974;7.824;2023-12-28T15:19:12;4.23;;;2.87;;
8213;SDS011;4148;47.974;7.824;2023-12-28T15:21:42;3.33;;;2.40;;
8213;SDS011;4148;47.974;7.824;2023-12-28T15:24:12;3.80;;;2.60;;